Time;durP1;ratioP1;P1;durP2;ratioP2;P2;SDS_P1;SDS_P2;PMS_P1;PMS_P2;Temp;Humidity;BMP_temperature;BMP_pressure;BME280_temperature;BME280_humidity;BME280_pressure;Samples;Min_cycle;Max_cycle;Signal;HPM_P1;HPM_P2
2022/03/06 00:00:22;;;;;;;16.27;11.38;;;12.70;48.10;;;;;;5123742;28;20023;-68
2022/03/06 00:02:48;;;;;;;16.58;11.15;;;12.60;48.00;;;;;;5123722;28;20015;-68
2022/03/06 00:05:14;;;;;;;13.80;10.27;;;12.60;48.00;;;;;;5123874;28;20095;-69
2022/03/06 00:07:39;;;;;;;13.85;10.80;;;12.60;47.90;;;;;;5123547;28;20042;-67
2022/03/06 00:10:06;;;;;;;14.77;10.85;;;12.60;48.00;;;;;;5123597;28;20319;-67
2022/03/06 00:12:31;;;;;;;15.00;10.95;;;12.60;48.00;;;;;;5123524;28;20020;-67
2022/03/06 00:14:57;;;;;;;17.55;12.52;;;12.60;48.10;;;;;;5123496;28;20058;-67
2022/03/06 00:17:23;;;;;;;14.25;10.40;;;12.60;48.10;;;;;;5123346;28;20031;-68
2022/03/06 00:19:49;;;;;;;13.70;9.88;;;12.60;47.90;;;;;;5123314;28;20026;-67
2022/03/06 00:22:14;;;;;;;13.77;10.10;;;12.60;48.10;;;;;;5123316;28;20051;-67
2022/03/06 00:24:40;;;;;;;17.00;11.10;;;12.60;48.00;;;;;;5123194;28;20019;-68
2022/03/06 00:27:06;;;;;;;16.08;11.80;;;12.60;48.00;;;;;;5123218;28;20028;-68
2022/03/06 00:29:31;;;;;;;16.33;11.32;;;12.60;48.20;;;;;;5123163;28;20043;-67
2022/03/06 00:31:57;;;;;;;13.60;9.80;;;12.60;48.20;;;;;;5123143;28;20087;-67
2022/03/06 00:34:23;;;;;;;15.75;11.30;;;12.50;48.00;;;;;;5123056;28;20023;-66
2022/03/06 00:36:48;;;;;;;13.80;10.27;;;12.50;48.70;;;;;;5122000;28;20043;-68
2022/03/06 00:39:14;;;;;;;14.55;10.65;;;12.60;48.20;;;;;;5122785;28;20095;-68
2022/03/06 00:41:40;;;;;;;14.20;10.82;;;12.60;48.10;;;;;;5122943;27;20034;-69
2022/03/06 00:44:06;;;;;;;16.00;11.15;;;12.60;48.70;;;;;;5122979;28;20027;-68
2022/03/06 00:46:31;;;;;;;14.23;10.88;;;12.50;48.20;;;;;;5123121;28;20023;-67
2022/03/06 00:48:57;;;;;;;14.20;10.43;;;12.50;48.10;;;;;;5121581;28;20043;-67
2022/03/06 00:51:23;;;;;;;14.25;10.52;;;12.50;48.20;;;;;;5122701;28;20024;-67
2022/03/06 00:53:48;;;;;;;16.52;11.07;;;12.50;48.10;;;;;;5122678;28;20035;-67
2022/03/06 00:56:14;;;;;;;13.75;10.68;;;12.50;48.20;;;;;;5122572;28;20050;-67
2022/03/06 00:58:40;;;;;;;13.77;10.60;;;12.50;48.10;;;;;;5121327;28;20023;-67
2022/03/06 01:01:06;;;;;;;13.13;9.45;;;12.50;48.20;;;;;;5122558;28;20023;-68
2022/03/06 01:03:32;;;;;;;16.30;10.38;;;12.50;48.40;;;;;;5122494;28;20208;-67
2022/03/06 01:05:58;;;;;;;14.65;10.68;;;12.50;48.30;;;;;;5122454;28;20023;-67
2022/03/06 01:08:24;;;;;;;15.05;10.43;;;12.50;48.10;;;;;;5122393;28;20028;-68
2022/03/06 01:10:51;;;;;;;14.98;10.50;;;12.40;48.20;;;;;;5122415;28;20047;-67
2022/03/06 01:13:20;;;;;;;14.15;10.52;;;12.50;48.30;;;;;;5122362;28;20034;-67
2022/03/06 01:15:46;;;;;;;13.23;9.30;;;12.40;48.30;;;;;;5122310;28;20266;-68
2022/03/06 01:18:12;;;;;;;14.55;10.52;;;12.40;48.20;;;;;;5122114;28;20027;-67
2022/03/06 01:20:39;;;;;;;12.73;9.48;;;12.40;48.40;;;;;;5122265;28;20083;-68
2022/03/06 01:23:06;;;;;;;17.33;10.40;;;12.40;48.30;;;;;;5122161;28;20092;-67
2022/03/06 01:25:32;;;;;;;14.75;9.57;;;12.40;48.30;;;;;;5122065;28;20023;-68
2022/03/06 01:27:59;;;;;;;12.63;9.45;;;12.40;48.10;;;;;;5122037;28;20068;-69
2022/03/06 01:30:25;;;;;;;14.25;10.13;;;12.40;48.50;;;;;;5121971;28;20347;-67
2022/03/06 01:32:51;;;;;;;14.45;10.55;;;12.40;48.40;;;;;;5121932;28;20036;-67
2022/03/06 01:35:17;;;;;;;15.27;10.38;;;12.40;48.40;;;;;;5121924;28;20333;-67
2022/03/06 01:37:43;;;;;;;13.32;10.05;;;12.40;48.40;;;;;;5121627;28;20228;-67
2022/03/06 01:40:10;;;;;;;13.13;9.63;;;12.40;48.50;;;;;;5121804;28;20051;-67
2022/03/06 01:42:41;;;;;;;13.65;9.55;;;12.40;48.40;;;;;;5121770;28;20011;-67
2022/03/06 01:45:11;;;;;;;13.38;9.77;;;12.30;48.30;;;;;;5121714;28;20039;-68
2022/03/06 01:47:52;;;;;;;13.32;9.60;;;12.30;48.10;;;;;;5121669;28;20019;-66
2022/03/06 01:50:24;;;;;;;13.32;9.70;;;12.30;48.30;;;;;;5122115;28;20090;-67
2022/03/06 01:52:54;;;;;;;15.35;10.30;;;12.30;48.60;;;;;;5121540;28;20385;-67
2022/03/06 01:55:22;;;;;;;12.60;9.75;;;12.30;48.40;;;;;;5121787;28;20426;-66
2022/03/06 01:57:48;;;;;;;13.40;9.57;;;12.30;48.50;;;;;;5121441;28;20057;-67
2022/03/06 02:00:17;;;;;;;13.48;9.82;;;12.30;48.40;;;;;;5121468;28;20406;-67
2022/03/06 02:02:44;;;;;;;13.10;9.35;;;12.30;48.30;;;;;;5121347;28;20093;-67
2022/03/06 02:05:11;;;;;;;15.10;10.55;;;12.30;48.50;;;;;;5121310;28;20023;-67
2022/03/06 02:07:37;;;;;;;14.48;9.82;;;12.30;48.50;;;;;;5121322;28;20053;-67
2022/03/06 02:10:05;;;;;;;11.10;9.00;;;12.30;48.50;;;;;;5121223;28;20031;-67
2022/03/06 02:12:31;;;;;;;11.98;9.60;;;12.30;48.50;;;;;;5121191;28;20027;-66
2022/03/06 02:14:59;;;;;;;15.30;10.35;;;12.30;48.40;;;;;;5119832;28;20324;-67
2022/03/06 02:17:26;;;;;;;13.52;9.32;;;12.30;48.50;;;;;;5119743;28;20036;-67
2022/03/06 02:19:52;;;;;;;12.82;9.30;;;12.30;48.50;;;;;;5121043;28;20071;-66
2022/03/06 02:22:22;;;;;;;12.55;8.75;;;12.30;48.40;;;;;;5121047;28;20027;-68
2022/03/06 02:24:48;;;;;;;13.38;9.88;;;12.30;48.50;;;;;;5120974;28;20023;-67
2022/03/06 02:27:14;;;;;;;14.82;9.30;;;12.20;48.40;;;;;;5120937;28;20252;-67
2022/03/06 02:29:41;;;;;;;14.00;9.07;;;12.20;48.40;;;;;;5120834;28;20085;-66
2022/03/06 02:32:12;;;;;;;13.70;9.93;;;12.20;48.60;;;;;;5120849;28;20020;-66
2022/03/06 02:34:39;;;;;;;12.23;8.88;;;12.20;48.40;;;;;;5120870;28;20027;-66
2022/03/06 02:37:05;;;;;;;13.75;9.20;;;12.20;48.50;;;;;;5120555;28;20070;-68
2022/03/06 02:39:31;;;;;;;11.30;8.48;;;12.20;48.50;;;;;;5120687;28;20284;-66
2022/03/06 02:41:57;;;;;;;16.02;9.82;;;12.20;48.40;;;;;;5120299;28;20282;-66
2022/03/06 02:44:22;;;;;;;12.40;9.23;;;12.20;48.60;;;;;;5120666;28;20075;-68
2022/03/06 02:46:49;;;;;;;12.52;8.60;;;12.20;48.60;;;;;;5120620;28;20027;-67
2022/03/06 02:49:17;;;;;;;12.25;8.95;;;12.20;48.60;;;;;;5120602;28;20043;-66
2022/03/06 02:51:46;;;;;;;11.82;8.80;;;12.20;48.70;;;;;;5120560;28;20255;-66
2022/03/06 02:54:13;;;;;;;12.98;9.23;;;12.20;48.60;;;;;;5120472;28;20108;-67
2022/03/06 02:56:40;;;;;;;13.75;9.73;;;12.20;48.70;;;;;;5120456;28;20037;-66
2022/03/06 02:59:06;;;;;;;11.80;7.95;;;12.20;48.20;;;;;;5120528;28;20026;-66
2022/03/06 03:01:37;;;;;;;9.77;7.22;;;11.70;43.40;;;;;;5119929;28;20079;-67
2022/03/06 03:04:04;;;;;;;8.88;6.28;;;11.40;42.60;;;;;;5120475;28;20016;-67
2022/03/06 03:06:30;;;;;;;8.15;5.80;;;11.10;41.80;;;;;;5120398;28;20219;-66
2022/03/06 03:08:56;;;;;;;10.05;6.53;;;10.80;42.00;;;;;;5120437;28;20039;-67
2022/03/06 03:11:22;;;;;;;10.10;6.22;;;10.70;42.20;;;;;;5120341;28;20024;-66
2022/03/06 03:13:48;;;;;;;6.95;5.90;;;10.60;42.10;;;;;;5120398;28;20064;-66
2022/03/06 03:16:14;;;;;;;9.80;5.63;;;10.50;41.40;;;;;;5120195;28;20031;-66
2022/03/06 03:18:39;;;;;;;9.50;5.70;;;10.40;41.90;;;;;;5120284;28;20224;-67
2022/03/06 03:21:05;;;;;;;9.85;5.95;;;10.30;41.50;;;;;;5120274;28;20068;-66
2022/03/06 03:23:31;;;;;;;8.82;6.45;;;10.30;41.70;;;;;;5120167;28;20024;-65
2022/03/06 03:25:56;;;;;;;9.55;6.57;;;10.30;41.70;;;;;;5120268;28;20035;-67
2022/03/06 03:28:22;;;;;;;8.50;6.22;;;10.20;41.40;;;;;;5120171;28;20227;-66
2022/03/06 03:30:48;;;;;;;6.55;5.25;;;10.20;41.80;;;;;;5120249;28;20080;-65
2022/03/06 03:33:13;;;;;;;7.53;5.75;;;10.20;41.60;;;;;;5120162;28;20023;-67
2022/03/06 03:35:39;;;;;;;8.25;5.47;;;10.20;41.80;;;;;;5120159;28;20091;-67
2022/03/06 03:38:05;;;;;;;8.68;5.70;;;10.10;41.60;;;;;;5119814;28;20082;-66
2022/03/06 03:40:31;;;;;;;7.68;5.32;;;10.00;41.70;;;;;;5120022;28;20175;-66
2022/03/06 03:42:56;;;;;;;7.20;5.00;;;10.00;41.60;;;;;;5120093;28;20018;-66
2022/03/06 03:45:22;;;;;;;8.73;5.75;;;10.10;41.70;;;;;;5120020;28;20197;-66
2022/03/06 03:47:48;;;;;;;8.93;6.03;;;10.00;41.60;;;;;;5120066;28;20054;-65
2022/03/06 03:50:14;;;;;;;9.60;5.50;;;10.00;41.90;;;;;;5120021;28;20034;-67
2022/03/06 03:52:39;;;;;;;7.40;5.43;;;10.00;42.80;;;;;;5119972;28;20031;-65
2022/03/06 03:55:06;;;;;;;6.85;5.75;;;10.00;41.90;;;;;;5119988;28;20083;-66
2022/03/06 03:57:31;;;;;;;7.28;5.50;;;10.00;41.70;;;;;;5119804;28;20193;-66
2022/03/06 03:59:57;;;;;;;6.85;5.28;;;10.00;41.70;;;;;;5119944;28;20072;-65
2022/03/06 04:02:23;;;;;;;9.02;4.95;;;10.00;41.50;;;;;;5119794;28;20039;-65
2022/03/06 04:04:49;;;;;;;8.50;5.82;;;9.90;41.80;;;;;;5120082;28;20020;-66
2022/03/06 04:07:16;;;;;;;9.27;6.10;;;9.90;41.70;;;;;;5119864;28;20024;-66
2022/03/06 04:09:41;;;;;;;8.77;5.82;;;9.90;41.80;;;;;;5119807;28;20027;-65
2022/03/06 04:12:08;;;;;;;7.25;5.53;;;9.80;41.70;;;;;;5120082;28;20215;-66
2022/03/06 04:14:34;;;;;;;9.10;5.68;;;9.80;41.40;;;;;;5123505;28;20047;-67
2022/03/06 04:17:00;;;;;;;8.45;5.32;;;9.80;41.40;;;;;;5123325;28;20035;-66
2022/03/06 04:19:25;;;;;;;8.60;5.93;;;9.80;41.30;;;;;;5123310;28;20247;-66
2022/03/06 04:21:51;;;;;;;9.05;5.72;;;9.80;41.40;;;;;;5123292;28;20015;-65
2022/03/06 04:24:17;;;;;;;6.85;5.15;;;9.80;41.60;;;;;;5123293;28;20469;-66
2022/03/06 04:26:43;;;;;;;8.00;5.55;;;9.80;42.00;;;;;;5123383;28;20024;-65
2022/03/06 04:29:09;;;;;;;9.88;5.18;;;9.80;41.80;;;;;;5123176;28;20039;-68
2022/03/06 04:31:35;;;;;;;8.13;5.47;;;9.90;41.80;;;;;;5123152;28;20031;-68
2022/03/06 04:34:01;;;;;;;7.53;5.18;;;9.80;41.70;;;;;;5123086;28;20027;-68
2022/03/06 04:36:26;;;;;;;7.40;5.25;;;9.80;41.80;;;;;;5122904;28;20024;-69
2022/03/06 04:38:52;;;;;;;8.88;5.72;;;9.80;41.80;;;;;;5122991;27;20036;-68
2022/03/06 04:41:18;;;;;;;8.80;5.78;;;9.90;41.70;;;;;;5122965;28;20069;-66
2022/03/06 04:43:44;;;;;;;6.75;5.13;;;9.80;42.10;;;;;;5122895;28;20362;-68
2022/03/06 04:46:10;;;;;;;7.05;4.95;;;9.80;41.50;;;;;;5122886;28;20019;-66
2022/03/06 04:48:36;;;;;;;8.95;4.90;;;9.80;41.80;;;;;;5122873;28;20019;-68
2022/03/06 04:51:02;;;;;;;8.30;5.00;;;9.80;41.70;;;;;;5122692;28;20037;-67
2022/03/06 04:53:29;;;;;;;7.05;4.80;;;9.80;41.30;;;;;;5122702;28;20058;-66
2022/03/06 04:55:54;;;;;;;7.57;5.22;;;9.80;41.80;;;;;;5122868;28;20031;-65
2022/03/06 04:58:20;;;;;;;7.57;5.30;;;9.80;41.50;;;;;;5122560;28;20572;-67
2022/03/06 05:00:46;;;;;;;10.15;6.15;;;9.70;41.50;;;;;;5122616;28;20414;-66
2022/03/06 05:03:11;;;;;;;6.47;5.10;;;9.70;41.20;;;;;;5122435;28;20087;-65
2022/03/06 05:05:37;;;;;;;10.43;6.38;;;9.70;41.10;;;;;;5122538;28;20216;-66
2022/03/06 05:08:03;;;;;;;9.75;5.78;;;9.70;41.00;;;;;;5122384;28;20031;-66
2022/03/06 05:10:29;;;;;;;9.02;6.07;;;9.70;41.50;;;;;;5122369;28;20028;-66
2022/03/06 05:12:54;;;;;;;10.23;6.90;;;9.70;41.30;;;;;;5122282;28;20034;-66
2022/03/06 05:15:20;;;;;;;8.82;6.15;;;9.70;41.40;;;;;;5122277;28;20091;-66
2022/03/06 05:17:46;;;;;;;10.05;6.07;;;9.70;41.30;;;;;;5122238;28;20075;-66
2022/03/06 05:20:12;;;;;;;8.00;5.45;;;9.70;40.90;;;;;;5122066;28;20034;-66
2022/03/06 05:22:39;;;;;;;9.27;6.18;;;9.70;41.00;;;;;;5122111;28;20023;-67
2022/03/06 05:25:06;;;;;;;10.15;6.10;;;9.70;41.20;;;;;;5121717;28;20023;-68
2022/03/06 05:27:31;;;;;;;9.55;5.80;;;9.70;41.00;;;;;;5121998;28;20020;-66
2022/03/06 05:29:57;;;;;;;7.75;5.90;;;9.70;41.10;;;;;;5121996;28;20039;-66
2022/03/06 05:32:23;;;;;;;10.23;5.93;;;9.70;41.70;;;;;;5121922;28;20054;-66
2022/03/06 05:34:49;;;;;;;8.65;5.70;;;9.70;41.40;;;;;;5121830;28;20047;-66
2022/03/06 05:37:14;;;;;;;7.30;5.22;;;9.60;42.00;;;;;;5121584;28;20066;-67
2022/03/06 05:39:40;;;;;;;7.53;5.13;;;9.60;41.40;;;;;;5121790;28;20028;-66
2022/03/06 05:42:06;;;;;;;7.30;5.57;;;9.60;41.30;;;;;;5121758;28;20023;-66
2022/03/06 05:44:32;;;;;;;6.90;5.32;;;9.60;41.20;;;;;;5121744;28;20079;-67
2022/03/06 05:46:57;;;;;;;9.18;5.75;;;9.70;41.10;;;;;;5121649;28;20351;-66
2022/03/06 05:49:23;;;;;;;6.72;5.05;;;9.60;41.00;;;;;;5120344;28;20016;-66
2022/03/06 05:51:49;;;;;;;8.88;5.63;;;9.70;41.00;;;;;;5121547;28;20083;-67
2022/03/06 05:54:15;;;;;;;7.63;5.05;;;9.70;41.40;;;;;;5121553;28;20027;-67
2022/03/06 05:56:41;;;;;;;7.13;5.35;;;9.60;41.40;;;;;;5121390;28;20272;-66
2022/03/06 05:59:07;;;;;;;6.47;4.75;;;9.60;41.30;;;;;;5121506;28;20031;-67
2022/03/06 06:01:33;;;;;;;11.43;4.63;;;9.60;41.50;;;;;;5121357;28;20034;-66
2022/03/06 06:04:00;;;;;;;8.05;5.00;;;9.60;41.20;;;;;;5121371;28;20257;-67
2022/03/06 06:06:27;;;;;;;7.47;4.78;;;9.60;40.80;;;;;;5121339;28;20042;-67
2022/03/06 06:08:54;;;;;;;7.22;4.75;;;9.60;40.60;;;;;;5121224;28;20343;-65
2022/03/06 06:11:20;;;;;;;6.72;4.72;;;9.60;41.10;;;;;;5121212;28;20023;-67
2022/03/06 06:13:47;;;;;;;10.35;5.45;;;9.60;41.00;;;;;;5121209;28;20027;-67
2022/03/06 06:16:13;;;;;;;8.57;4.82;;;9.60;40.70;;;;;;5121011;28;20161;-66
2022/03/06 06:18:40;;;;;;;7.68;4.85;;;9.60;41.00;;;;;;5121024;28;20306;-66
2022/03/06 06:21:06;;;;;;;7.05;4.75;;;9.60;41.10;;;;;;5121025;28;20069;-67
2022/03/06 06:23:32;;;;;;;9.25;5.95;;;9.60;41.20;;;;;;5120975;28;20062;-67
2022/03/06 06:25:58;;;;;;;7.30;4.70;;;9.60;40.80;;;;;;5120947;28;20044;-66
2022/03/06 06:28:24;;;;;;;6.75;4.63;;;9.60;40.60;;;;;;5120892;28;20031;-66
2022/03/06 06:30:49;;;;;;;8.48;4.90;;;9.60;40.60;;;;;;5120816;28;20068;-67
2022/03/06 06:33:15;;;;;;;7.43;4.53;;;9.60;41.20;;;;;;5120807;28;20046;-67
2022/03/06 06:35:41;;;;;;;7.63;5.22;;;9.60;40.70;;;;;;5119947;28;20056;-66
2022/03/06 06:38:06;;;;;;;6.90;4.57;;;9.60;40.30;;;;;;5120580;28;20047;-68
2022/03/06 06:40:32;;;;;;;12.40;4.70;;;9.60;40.50;;;;;;5120705;28;20032;-67
2022/03/06 06:42:58;;;;;;;8.60;5.30;;;9.60;40.50;;;;;;5120648;28;20027;-66
2022/03/06 06:45:24;;;;;;;8.43;3.83;;;9.70;40.40;;;;;;5120666;28;20028;-67
2022/03/06 06:47:50;;;;;;;9.68;4.35;;;9.70;40.30;;;;;;5120646;28;20027;-67
2022/03/06 06:50:16;;;;;;;6.47;4.60;;;9.70;40.70;;;;;;5120585;28;20354;-67
2022/03/06 06:52:42;;;;;;;6.45;4.38;;;9.70;40.40;;;;;;5120509;28;20128;-67
2022/03/06 06:55:08;;;;;;;6.35;5.18;;;9.80;40.00;;;;;;5120507;28;20320;-68
2022/03/06 06:57:34;;;;;;;6.00;3.78;;;9.80;39.70;;;;;;5120396;28;20027;-67
2022/03/06 07:00:02;;;;;;;5.57;3.88;;;9.90;40.30;;;;;;5120446;28;20123;-67
2022/03/06 07:02:28;;;;;;;6.07;3.97;;;9.90;40.10;;;;;;5120499;28;20024;-67
2022/03/06 07:04:54;;;;;;;6.90;4.53;;;10.00;40.00;;;;;;5120454;28;20046;-66
2022/03/06 07:07:19;;;;;;;7.18;3.72;;;10.10;39.80;;;;;;5120362;28;20028;-67
2022/03/06 07:09:45;;;;;;;5.72;3.38;;;10.10;39.70;;;;;;5120357;28;20035;-67
2022/03/06 07:12:11;;;;;;;4.13;3.22;;;10.10;40.00;;;;;;5120218;28;20024;-65
2022/03/06 07:14:37;;;;;;;5.70;3.72;;;10.10;39.60;;;;;;5120292;28;20024;-67
2022/03/06 07:17:03;;;;;;;5.53;3.90;;;10.10;39.60;;;;;;5120193;28;20028;-66
2022/03/06 07:19:29;;;;;;;5.43;3.63;;;10.20;39.20;;;;;;5120215;28;20034;-66
2022/03/06 07:21:54;;;;;;;6.63;3.83;;;10.10;39.10;;;;;;5120197;28;20538;-66
2022/03/06 07:24:20;;;;;;;5.18;4.00;;;10.30;39.60;;;;;;5120254;28;20028;-66
2022/03/06 07:26:46;;;;;;;6.50;4.00;;;10.30;39.10;;;;;;5120300;28;20030;-67
2022/03/06 07:29:12;;;;;;;7.03;4.50;;;10.40;39.10;;;;;;5120111;28;20023;-67
2022/03/06 07:31:37;;;;;;;6.20;4.00;;;10.40;38.90;;;;;;5120232;28;20028;-67
2022/03/06 07:34:03;;;;;;;5.28;3.72;;;10.40;39.60;;;;;;5120194;28;20020;-68
2022/03/06 07:36:29;;;;;;;7.68;4.85;;;10.40;39.20;;;;;;5118633;28;20030;-66
2022/03/06 07:38:54;;;;;;;6.25;4.25;;;10.40;38.90;;;;;;5120103;28;20043;-67
2022/03/06 07:41:20;;;;;;;7.25;4.05;;;10.50;39.10;;;;;;5120008;28;20347;-67
2022/03/06 07:43:46;;;;;;;8.15;4.72;;;10.60;38.30;;;;;;5120057;28;20016;-66
2022/03/06 07:46:12;;;;;;;5.95;4.38;;;10.60;38.00;;;;;;5120353;28;20163;-66
2022/03/06 07:48:37;;;;;;;7.97;4.50;;;10.60;38.30;;;;;;5124000;28;20033;-66
2022/03/06 07:51:04;;;;;;;6.35;4.90;;;10.70;38.00;;;;;;5123930;28;20079;-66
2022/03/06 07:53:29;;;;;;;6.93;4.43;;;10.70;38.00;;;;;;5123903;28;20079;-66
2022/03/06 07:55:55;;;;;;;7.38;3.97;;;10.70;37.70;;;;;;5123868;28;20030;-66
2022/03/06 07:58:21;;;;;;;7.40;4.38;;;10.80;37.70;;;;;;5123671;28;20027;-65
2022/03/06 08:00:46;;;;;;;5.75;4.40;;;10.80;37.50;;;;;;5123766;28;20019;-66
2022/03/06 08:03:12;;;;;;;9.30;5.28;;;10.80;37.60;;;;;;5123606;28;20065;-66
2022/03/06 08:05:38;;;;;;;6.80;4.40;;;10.80;37.50;;;;;;5123634;28;20220;-66
2022/03/06 08:08:04;;;;;;;5.13;4.00;;;10.90;37.90;;;;;;5123553;28;20218;-67
2022/03/06 08:10:30;;;;;;;5.75;4.38;;;11.00;37.90;;;;;;5123486;28;20031;-66
2022/03/06 08:12:56;;;;;;;6.65;4.47;;;11.00;38.30;;;;;;5123543;28;20042;-67
2022/03/06 08:15:21;;;;;;;7.10;4.50;;;11.00;37.60;;;;;;5123434;28;20023;-66
2022/03/06 08:17:47;;;;;;;7.28;4.43;;;11.00;37.80;;;;;;5123333;28;20027;-66
2022/03/06 08:20:14;;;;;;;7.35;4.05;;;11.10;37.90;;;;;;5123350;28;20064;-66
2022/03/06 08:22:40;;;;;;;5.72;4.72;;;11.20;38.00;;;;;;5123309;27;20319;-66
2022/03/06 08:25:06;;;;;;;6.55;4.18;;;11.20;37.90;;;;;;5123300;28;20031;-66
2022/03/06 08:27:32;;;;;;;6.68;4.72;;;11.30;38.10;;;;;;5123136;28;20080;-67
2022/03/06 08:30:02;;;;;;;7.30;4.70;;;11.30;38.00;;;;;;5123103;28;20019;-68
2022/03/06 08:32:27;;;;;;;7.60;4.47;;;11.30;37.60;;;;;;5123124;28;20316;-66
2022/03/06 08:34:53;;;;;;;5.90;4.57;;;11.30;37.90;;;;;;5123070;28;20039;-67
2022/03/06 08:37:20;;;;;;;6.53;3.97;;;11.40;37.80;;;;;;5122749;28;20236;-66
2022/03/06 08:39:47;;;;;;;5.95;4.07;;;11.40;37.80;;;;;;5123210;28;20114;-68
2022/03/06 08:42:13;;;;;;;8.23;3.90;;;11.50;37.90;;;;;;5122893;28;20023;-66
2022/03/06 08:44:39;;;;;;;6.05;4.70;;;11.50;38.10;;;;;;5122838;28;20032;-67
2022/03/06 08:47:05;;;;;;;5.95;4.20;;;11.50;37.60;;;;;;5122745;28;20034;-66
2022/03/06 08:49:31;;;;;;;5.80;4.43;;;11.50;37.80;;;;;;5122654;28;20028;-66
2022/03/06 08:51:57;;;;;;;6.18;4.22;;;11.50;37.50;;;;;;5122705;28;20034;-67
2022/03/06 08:54:23;;;;;;;8.40;4.60;;;11.60;37.60;;;;;;5122646;28;20244;-67
2022/03/06 08:56:49;;;;;;;7.53;4.43;;;11.60;37.50;;;;;;5122566;28;20027;-66
2022/03/06 08:59:15;;;;;;;6.78;4.40;;;11.70;37.50;;;;;;5121759;27;20303;-67
2022/03/06 09:01:41;;;;;;;6.53;4.22;;;11.60;37.50;;;;;;5122452;28;20019;-67
2022/03/06 09:04:06;;;;;;;7.53;5.00;;;11.60;37.60;;;;;;5122466;28;20211;-66
2022/03/06 09:06:32;;;;;;;6.18;4.53;;;11.60;37.80;;;;;;5122361;28;20039;-67
2022/03/06 09:08:58;;;;;;;8.68;4.78;;;11.70;37.70;;;;;;5122617;28;20024;-67
2022/03/06 09:11:24;;;;;;;8.57;4.97;;;11.70;37.60;;;;;;5122340;28;20355;-67
2022/03/06 09:13:49;;;;;;;6.25;4.50;;;11.70;37.60;;;;;;5122295;28;20047;-66
2022/03/06 09:16:15;;;;;;;6.88;4.60;;;11.70;37.50;;;;;;5122131;28;20073;-67
2022/03/06 09:18:43;;;;;;;6.93;4.90;;;11.70;37.30;;;;;;5122243;28;20516;-67
2022/03/06 09:21:09;;;;;;;6.47;4.78;;;11.70;37.30;;;;;;5122193;28;20019;-67
2022/03/06 09:23:35;;;;;;;7.43;4.90;;;11.80;37.40;;;;;;5122099;28;20270;-67
2022/03/06 09:26:01;;;;;;;5.70;3.80;;;11.80;37.30;;;;;;5122038;28;20075;-67
2022/03/06 09:28:26;;;;;;;7.32;4.80;;;11.80;36.80;;;;;;5122092;28;20083;-68
2022/03/06 09:30:52;;;;;;;6.63;4.57;;;11.80;37.40;;;;;;5120713;28;20035;-67
2022/03/06 09:33:18;;;;;;;5.65;4.57;;;11.90;37.70;;;;;;5121932;28;20039;-67
2022/03/06 09:35:43;;;;;;;6.47;4.38;;;11.90;37.80;;;;;;5121907;28;20039;-67
2022/03/06 09:38:09;;;;;;;8.30;4.32;;;11.90;37.60;;;;;;5121563;28;20043;-66
2022/03/06 09:40:37;;;;;;;5.88;4.30;;;12.00;37.80;;;;;;5121788;27;20095;-67
2022/03/06 09:43:02;;;;;;;7.18;4.80;;;12.00;38.40;;;;;;5121698;28;20071;-66
2022/03/06 09:45:32;;;;;;;7.07;4.88;;;12.00;37.00;;;;;;5121645;28;20066;-67
2022/03/06 09:47:59;;;;;;;7.28;4.72;;;12.00;36.90;;;;;;5121585;28;20035;-66
2022/03/06 09:50:25;;;;;;;7.05;4.80;;;12.00;37.90;;;;;;5121597;28;20331;-67
2022/03/06 09:52:51;;;;;;;5.57;4.18;;;12.00;37.60;;;;;;5121477;28;20090;-67
2022/03/06 09:55:16;;;;;;;7.30;4.55;;;12.10;38.20;;;;;;5121560;28;20016;-66
2022/03/06 09:57:42;;;;;;;5.38;3.88;;;12.10;38.60;;;;;;5121327;28;20031;-67
2022/03/06 10:00:10;;;;;;;6.75;4.78;;;12.20;38.40;;;;;;5121418;28;20083;-67
2022/03/06 10:03:04;;;;;;;6.78;4.72;;;12.10;37.90;;;;;;5121353;28;20223;-67
2022/03/06 10:05:37;;;;;;;6.43;4.22;;;12.10;37.40;;;;;;5103923;27;20031;-66
2022/03/06 10:08:29;;;;;;;6.40;4.78;;;12.20;38.10;;;;;;5121207;28;20231;-67
2022/03/06 10:11:02;;;;;;;9.95;4.78;;;12.20;37.70;;;;;;5121202;28;20028;-66
2022/03/06 10:13:33;;;;;;;8.20;4.65;;;12.20;38.30;;;;;;5121143;28;20050;-67
2022/03/06 10:16:15;;;;;;;6.50;3.92;;;12.20;38.40;;;;;;5121310;28;20176;-66
2022/03/06 10:18:44;;;;;;;7.63;4.03;;;12.30;39.40;;;;;;5120980;28;20027;-66
2022/03/06 10:21:14;;;;;;;;;;;12.30;40.30;;;;;;5121455;28;20110;-67
2022/03/06 10:23:41;;;;;;;6.00;4.28;;;12.40;39.50;;;;;;5121023;28;19997;-67
2022/03/06 10:26:15;;;;;;;8.68;4.68;;;12.40;38.50;;;;;;5120983;28;20016;-67
2022/03/06 10:28:44;;;;;;;7.55;4.50;;;12.30;37.90;;;;;;5120829;28;20319;-66
2022/03/06 10:31:10;;;;;;;6.47;4.32;;;12.30;38.50;;;;;;5120831;28;20035;-67
2022/03/06 10:33:36;;;;;;;8.98;4.55;;;12.40;39.40;;;;;;5120817;28;20020;-66
2022/03/06 10:36:02;;;;;;;6.25;4.63;;;12.40;38.30;;;;;;5121097;28;20227;-66
2022/03/06 10:38:31;;;;;;;6.63;4.40;;;12.40;38.40;;;;;;5119257;28;20064;-67
2022/03/06 10:41:08;;;;;;;6.15;4.00;;;12.40;38.40;;;;;;5120730;28;20024;-66
2022/03/06 10:43:34;;;;;;;5.55;4.20;;;12.50;39.30;;;;;;5120678;28;20124;-67
2022/03/06 10:46:16;;;;;;;8.73;4.68;;;12.50;39.70;;;;;;5120547;28;20030;-67
2022/03/06 10:48:55;;;;;;;5.80;3.90;;;12.60;40.10;;;;;;5120565;28;20011;-67
2022/03/06 10:51:21;;;;;;;7.72;4.30;;;12.70;40.00;;;;;;5119296;28;20028;-66
2022/03/06 10:53:55;;;;;;;5.65;4.18;;;12.70;40.10;;;;;;5120529;28;20026;-65
2022/03/06 10:56:21;;;;;;;7.22;5.03;;;12.70;40.10;;;;;;5120376;28;20023;-66
2022/03/06 10:58:48;;;;;;;7.07;4.80;;;12.60;40.00;;;;;;5120486;28;20019;-67
2022/03/06 11:01:14;;;;;;;5.75;4.28;;;12.70;40.40;;;;;;5120459;28;20324;-67
2022/03/06 11:03:40;;;;;;;8.65;4.40;;;12.70;40.10;;;;;;5120408;28;20074;-67
2022/03/06 11:06:09;;;;;;;5.50;4.03;;;12.80;40.60;;;;;;5120434;28;20447;-66
2022/03/06 11:08:36;;;;;;;;;;;12.80;40.60;;;;;;5120859;28;20122;-66
2022/03/06 11:11:05;;;;;;;6.85;4.40;;;12.80;40.60;;;;;;5120299;28;19904;-67
2022/03/06 11:13:31;;;;;;;7.10;4.85;;;12.80;40.60;;;;;;5120317;28;20311;-66
2022/03/06 11:15:58;;;;;;;7.90;4.43;;;12.90;40.80;;;;;;5120402;28;20023;-68
2022/03/06 11:18:26;;;;;;;6.35;4.68;;;12.90;40.50;;;;;;5120220;28;20020;-67
2022/03/06 11:20:53;;;;;;;4.70;3.65;;;12.90;40.40;;;;;;5120238;28;20079;-67
2022/03/06 11:23:34;;;;;;;5.60;4.20;;;12.90;40.80;;;;;;5124285;28;20188;-66
2022/03/06 11:26:17;;;;;;;7.05;4.40;;;12.90;40.00;;;;;;5124414;28;20374;-67
2022/03/06 11:29:07;;;;;;;6.28;4.15;;;12.90;40.60;;;;;;5124358;28;20031;-67
2022/03/06 11:31:44;;;;;;;5.28;3.97;;;12.90;40.70;;;;;;5124239;28;20020;-66
2022/03/06 11:34:10;;;;;;;6.97;4.78;;;12.90;40.70;;;;;;5124292;28;20030;-66
2022/03/06 11:36:47;;;;;;;6.88;4.40;;;13.00;40.90;;;;;;5123954;28;20030;-67
2022/03/06 11:39:28;;;;;;;5.25;4.28;;;13.00;41.00;;;;;;5124199;28;20039;-66
2022/03/06 11:41:54;;;;;;;7.07;4.10;;;13.00;41.10;;;;;;5124059;28;20049;-67
2022/03/06 11:44:34;;;;;;;5.85;4.00;;;13.00;41.20;;;;;;5124011;28;20034;-66
2022/03/06 11:47:00;;;;;;;7.97;4.55;;;13.00;41.10;;;;;;5123921;28;20030;-67
2022/03/06 11:49:34;;;;;;;5.72;4.20;;;13.00;41.20;;;;;;5122757;28;20035;-67
2022/03/06 11:52:00;;;;;;;8.35;4.38;;;13.00;41.20;;;;;;5123904;28;20035;-66
2022/03/06 11:54:41;;;;;;;7.43;4.15;;;13.00;41.10;;;;;;5123797;28;20373;-66
2022/03/06 11:57:07;;;;;;;6.95;4.53;;;13.10;41.00;;;;;;5123804;28;20309;-65
2022/03/06 11:59:35;;;;;;;6.20;3.88;;;13.10;40.90;;;;;;5123680;28;20087;-66
2022/03/06 12:02:05;;;;;;;6.55;4.15;;;13.10;40.90;;;;;;5122420;28;20027;-66
2022/03/06 12:04:46;;;;;;;7.53;4.65;;;13.10;40.90;;;;;;5122390;28;20026;-67
2022/03/06 12:07:14;;;;;;;5.72;4.25;;;13.10;40.90;;;;;;5123585;28;20056;-66
2022/03/06 12:09:42;;;;;;;7.28;4.88;;;13.10;41.00;;;;;;5123581;28;20114;-66
2022/03/06 12:12:13;;;;;;;5.70;4.15;;;13.10;40.90;;;;;;5123492;28;20058;-68
2022/03/06 12:14:50;;;;;;;7.45;4.20;;;13.10;41.00;;;;;;5123509;28;20061;-68
2022/03/06 12:17:17;;;;;;;6.75;3.85;;;13.10;41.00;;;;;;5123434;28;20039;-67
2022/03/06 12:19:42;;;;;;;5.40;3.78;;;13.10;40.90;;;;;;5122147;28;20068;-66
2022/03/06 12:22:08;;;;;;;5.45;3.72;;;13.10;41.10;;;;;;5123295;28;20039;-67
2022/03/06 12:24:34;;;;;;;5.03;3.90;;;13.20;41.10;;;;;;5123292;28;20027;-66
2022/03/06 12:27:16;;;;;;;6.30;3.85;;;13.20;41.00;;;;;;5123204;28;20276;-66
2022/03/06 12:29:48;;;;;;;6.07;4.03;;;13.20;41.20;;;;;;5123165;28;20015;-66
2022/03/06 12:32:28;;;;;;;5.57;4.25;;;13.20;41.10;;;;;;5122908;28;20023;-68
2022/03/06 12:35:06;;;;;;;6.97;3.83;;;13.20;41.20;;;;;;5122404;28;20023;-67
2022/03/06 12:37:37;;;;;;;6.32;4.53;;;13.20;41.20;;;;;;5121467;28;20084;-67
2022/03/06 12:40:15;;;;;;;4.95;3.75;;;13.20;41.30;;;;;;5122932;28;20248;-67
2022/03/06 12:42:43;;;;;;;6.47;3.90;;;13.20;41.30;;;;;;5121715;28;20088;-67
2022/03/06 12:45:11;;;;;;;5.43;3.80;;;13.20;41.40;;;;;;5122916;28;20023;-67